Darrington, WA

9:26 PM PDT on September 20, 2014 (GMT -0700)
Glacier View Internet | Change Station
CLOSE
Current Station
Personal Weather Station
Location: Darrington, WA
Elevation: 549 ft
Nearby Weather Stations

Elev 549 ft 48.25 °N, 121.61 °W | Updated 11 minutes ago

Clear
Clear
63.1 °F
Feels Like 63.1 °F
N
1.0
Wind Variable Wind from ENE
Gusts 3.0 mph

Today
High -- | Low -- °F
--% Chance of Precip.
Yesterday
High -- | Low -- °F
Precip. -- in
6:50 AM 7:08 PM
Waning Crescent, 9% visible
Pressure 29.93 in
Visibility 10.0 miles
Clouds Clear
Dew Point 57 °F
Humidity 80%
Rainfall 0.00 in
Snow Depth 0 in , 0 in , 0 in
UV 0 out of 12
Pollen 1.30 out of 12
PM2.5 Good
Flu Activity Not available.
METAR KAWO 210355Z AUTO 00000KT 10SM CLR 16/12 A2993 RMK AO1

More Conditions Fewer Conditions

Pressure 29.93 in
Visibility 10.0 miles
Clouds Clear
Dew Point 57 °F
Humidity 80%
Rainfall 0.00 in
Snow Depth 0 in , 0 in , 0 in
UV 0 out of 12
Pollen 1.30 out of 12
PM2.5 Good
Flu Activity Not available.
METAR KAWO 210355Z AUTO 00000KT 10SM CLR 16/12 A2993 RMK AO1

More Conditions Fewer Conditions

10-Day Weather Forecast

Almanac

Astronomy

Sep. 20, 2014 Rise Set
Actual Time 6:50 AM PDT 7:08 PM PDT
Civil Twilight 6:19 AM PDT 7:39 PM PDT
Nautical Twilight 5:42 AM PDT 8:16 PM PDT
Astronomical Twilight 5:04 AM PDT 8:54 PM PDT
Moon 3:22 AM PDT (9/20) 5:24 PM PDT (9/20)
Length of Visible Light 13h 20m
Length of Day
12h 17m
Tomorrow will be 3m 29s shorter.
Waning Crescent, 9% of the Moon is Illuminated
Sep 21
Waning Crescent
Sep 24
New
Oct 1
First Quarter
Oct 8
Full
Oct 15
Last Quarter

Today's Extremes

State Highs State Lows

Community

WunderPhotos

Upload Photos

1,755,081 photos uploaded!

Nearby

Air Quality

  Air Quality AQ Index Pollutant
Yesterday Good
OZONE
Yesterday Good
PM2.5
Current Good
PM2.5
Saturday Good
PM2.5
Saturday Good
OZONE
Sunday Good
PM2.5
Sunday Good
OZONE
Monday Good
OZONE
Monday Good
PM2.5
Tuesday Good
OZONE
Tuesday Good
PM2.5

Snow Depth

Station Depth Elevation
Surprise Lakes 0 in 4250 ft
Spruce Springs 0 in 5700 ft
Elbow Lake 0 in 3200 ft
Trough 0 in 5300 ft
Touchet 0 in 5530 ft

Earthquake Activity

City Distance Mag. Time & Date
No recent earthquake activity has been reported nearby.
Minimum magnitude displayed is 2.5.

Coastal Water Temperatures

Place Temperature
No Stations Reporting

Nearby Weather Stations